createdAt,value
2017-12-16T00:02:05.730Z,15.00
2017-12-16T00:04:34.807Z,14.40
2017-12-16T00:07:03.094Z,17.30
2017-12-16T00:09:31.445Z,19.07
2017-12-16T00:11:59.782Z,18.10
2017-12-16T00:14:28.075Z,16.70
2017-12-16T00:16:56.369Z,17.00
2017-12-16T00:19:24.700Z,17.40
2017-12-16T00:21:53.028Z,17.47
2017-12-16T00:24:21.319Z,17.60
2017-12-16T00:26:49.815Z,19.60
2017-12-16T00:29:18.112Z,16.53
2017-12-16T00:31:46.395Z,17.10
2017-12-16T00:34:14.730Z,17.03
2017-12-16T00:36:43.018Z,16.10
2017-12-16T00:39:11.566Z,15.30
2017-12-16T00:41:39.854Z,16.37
2017-12-16T00:44:08.248Z,16.30
2017-12-16T00:46:36.579Z,15.77
2017-12-16T00:49:04.914Z,16.00
2017-12-16T00:51:33.208Z,16.07
2017-12-16T00:54:01.608Z,16.60
2017-12-16T00:56:29.948Z,16.60
2017-12-16T00:58:58.238Z,17.30
2017-12-16T01:01:26.567Z,18.63
2017-12-16T01:03:55.868Z,16.20
2017-12-16T01:06:24.182Z,17.57
2017-12-16T01:08:52.485Z,16.87
2017-12-16T01:11:21.579Z,16.40
2017-12-16T01:13:49.884Z,15.43
2017-12-16T01:16:18.231Z,16.30
2017-12-16T01:18:46.519Z,17.90
2017-12-16T01:21:14.802Z,16.90
2017-12-16T01:23:43.227Z,18.50
2017-12-16T01:26:11.514Z,17.50
2017-12-16T01:28:39.846Z,17.13
2017-12-16T01:31:08.284Z,18.80
2017-12-16T01:33:48.376Z,17.57
2017-12-16T01:36:28.534Z,16.13
2017-12-16T01:38:58.563Z,17.90
2017-12-16T01:41:26.856Z,17.70
2017-12-16T01:43:55.146Z,17.80
2017-12-16T01:46:23.507Z,16.87
2017-12-16T01:48:51.811Z,17.77
2017-12-16T01:51:20.103Z,18.60
2017-12-16T01:53:48.603Z,18.60
2017-12-16T01:56:16.896Z,18.30
2017-12-16T01:58:45.179Z,17.17
2017-12-16T02:01:15.106Z,17.23
2017-12-16T02:03:44.947Z,14.93
2017-12-16T02:06:14.002Z,17.00
2017-12-16T02:08:42.339Z,16.20
2017-12-16T02:11:10.676Z,19.27
2017-12-16T02:13:38.966Z,16.10
2017-12-16T02:16:08.535Z,16.33
2017-12-16T02:18:36.876Z,16.30
2017-12-16T02:21:05.171Z,18.57
2017-12-16T02:23:33.474Z,19.67
2017-12-16T02:26:01.822Z,17.33
2017-12-16T02:28:30.120Z,18.80
2017-12-16T02:30:58.466Z,15.63
2017-12-16T02:33:27.779Z,17.63
2017-12-16T02:35:57.579Z,15.80
2017-12-16T02:38:25.907Z,17.33
2017-12-16T02:40:54.319Z,15.23
2017-12-16T02:43:23.406Z,17.40
2017-12-16T02:45:51.786Z,17.70
2017-12-16T02:48:20.229Z,18.07
2017-12-16T02:50:49.255Z,17.03
2017-12-16T02:53:17.599Z,17.40
2017-12-16T02:55:46.656Z,15.27
2017-12-16T02:58:14.996Z,18.77
2017-12-16T03:00:44.058Z,17.60
2017-12-16T03:03:12.343Z,17.17
2017-12-16T03:05:40.675Z,16.37
2017-12-16T03:08:09.766Z,17.60
2017-12-16T03:10:39.603Z,17.07
2017-12-16T03:13:07.891Z,17.73
2017-12-16T03:15:36.236Z,15.10
2017-12-16T03:18:04.527Z,20.00
2017-12-16T03:20:32.819Z,17.20
2017-12-16T03:23:01.156Z,16.90
2017-12-16T03:25:30.213Z,16.07
2017-12-16T03:27:58.534Z,15.40
2017-12-16T03:30:27.028Z,16.40
2017-12-16T03:32:55.314Z,16.47
2017-12-16T03:35:23.612Z,16.10
2017-12-16T03:37:51.953Z,17.00
2017-12-16T03:40:20.266Z,15.37
2017-12-16T03:42:48.559Z,15.57
2017-12-16T03:45:16.914Z,16.00
2017-12-16T03:47:45.206Z,15.97
2017-12-16T03:50:13.550Z,16.83
2017-12-16T03:52:41.831Z,14.90
2017-12-16T03:55:10.167Z,15.23
2017-12-16T03:57:38.491Z,17.10
2017-12-16T04:00:06.903Z,14.97
2017-12-16T04:02:35.294Z,14.20
2017-12-16T04:05:03.687Z,16.50
2017-12-16T04:07:32.022Z,15.17
2017-12-16T04:10:00.371Z,14.03
2017-12-16T04:12:28.671Z,17.70
2017-12-16T04:14:57.002Z,15.60
2017-12-16T04:17:25.299Z,15.17
2017-12-16T04:19:53.639Z,14.47
2017-12-16T04:22:21.927Z,16.07
2017-12-16T04:24:51.018Z,14.30
2017-12-16T04:27:19.307Z,16.83
2017-12-16T04:29:49.150Z,15.23
2017-12-16T04:32:17.443Z,14.80
2017-12-16T04:34:46.559Z,18.98
2017-12-16T04:37:15.614Z,15.10
2017-12-16T04:39:43.910Z,14.97
2017-12-16T04:42:12.247Z,13.37
2017-12-16T04:44:41.548Z,15.97
2017-12-16T04:47:09.838Z,14.20
2017-12-16T04:49:38.127Z,15.50
2017-12-16T04:52:06.471Z,14.20
2017-12-16T04:54:34.790Z,14.77
2017-12-16T04:57:03.084Z,15.43
2017-12-16T04:59:31.410Z,15.20
2017-12-16T05:01:59.804Z,14.47
2017-12-16T05:04:28.132Z,15.83
2017-12-16T05:06:56.423Z,12.93
2017-12-16T05:09:24.759Z,13.80
2017-12-16T05:11:53.820Z,14.50
2017-12-16T05:14:22.164Z,13.93
2017-12-16T05:16:51.215Z,15.20
2017-12-16T05:19:19.511Z,13.43
2017-12-16T05:21:47.916Z,15.80
2017-12-16T05:24:16.311Z,14.10
2017-12-16T05:26:44.615Z,13.73
2017-12-16T05:29:13.743Z,15.57
2017-12-16T05:31:42.098Z,14.73
2017-12-16T05:34:10.493Z,15.47
2017-12-16T05:36:38.843Z,16.00
2017-12-16T05:39:07.135Z,15.70
2017-12-16T05:41:35.430Z,16.37
2017-12-16T05:44:03.767Z,18.05
2017-12-16T05:46:32.826Z,15.43
2017-12-16T05:49:01.194Z,15.67
2017-12-16T05:51:29.575Z,14.83
2017-12-16T05:53:58.663Z,16.40
2017-12-16T05:56:28.159Z,17.87
2017-12-16T05:58:56.464Z,18.30
2017-12-16T06:01:24.758Z,16.73
2017-12-16T06:03:54.586Z,15.60
2017-12-16T06:06:23.695Z,28.27
2017-12-16T06:08:52.747Z,20.00
2017-12-16T06:11:21.256Z,17.10
2017-12-16T06:13:49.548Z,18.73
2017-12-16T06:16:17.843Z,16.70
2017-12-16T06:18:46.178Z,14.03
2017-12-16T06:21:15.242Z,14.23
2017-12-16T06:23:43.571Z,17.57
2017-12-16T06:26:12.628Z,16.10
2017-12-16T06:28:40.951Z,15.63
2017-12-16T06:31:09.242Z,17.27
2017-12-16T06:33:38.335Z,17.70
2017-12-16T06:36:06.718Z,17.87
2017-12-16T06:38:35.054Z,16.40
2017-12-16T06:41:03.338Z,18.07
2017-12-16T06:43:31.679Z,17.80
2017-12-16T06:46:00.186Z,16.63
2017-12-16T06:48:28.479Z,16.67
2017-12-16T06:50:58.304Z,18.20
2017-12-16T06:53:26.800Z,17.23
2017-12-16T06:55:55.091Z,16.17
2017-12-16T06:58:23.379Z,17.10
2017-12-16T07:00:51.767Z,20.17
2017-12-16T07:03:21.559Z,16.20
2017-12-16T07:05:49.893Z,19.97
2017-12-16T07:08:18.655Z,17.00
2017-12-16T07:10:46.942Z,16.57
2017-12-16T07:13:15.241Z,17.77
2017-12-16T07:15:43.575Z,19.00
2017-12-16T07:18:12.658Z,16.93
2017-12-16T07:20:41.043Z,18.47
2017-12-16T07:23:09.434Z,23.63
2017-12-16T07:25:37.767Z,21.00
2017-12-16T07:28:06.055Z,19.97
2017-12-16T07:30:34.490Z,21.03
2017-12-16T07:33:02.785Z,22.87
2017-12-16T07:35:31.111Z,21.57
2017-12-16T07:38:00.166Z,22.30
2017-12-16T07:40:28.498Z,23.10
2017-12-16T07:42:56.786Z,21.23
2017-12-16T07:45:25.902Z,19.73
2017-12-16T07:47:54.959Z,21.00
2017-12-16T07:50:23.296Z,20.77
2017-12-16T07:52:52.354Z,20.57
2017-12-16T07:55:20.651Z,19.77
2017-12-16T07:57:48.983Z,19.43
2017-12-16T08:00:18.091Z,18.83
2017-12-16T08:02:46.375Z,20.20
2017-12-16T08:05:15.467Z,18.50
2017-12-16T08:07:43.795Z,17.97
2017-12-16T08:10:12.083Z,19.53
2017-12-16T08:12:40.414Z,18.33
2017-12-16T08:15:08.707Z,18.23
2017-12-16T08:17:36.995Z,17.87
2017-12-16T08:20:06.291Z,17.70
2017-12-16T08:22:34.582Z,17.93
2017-12-16T08:25:02.906Z,16.17
2017-12-16T08:27:32.132Z,18.07
2017-12-16T08:30:02.446Z,16.67
2017-12-16T08:32:30.836Z,17.83
2017-12-16T08:34:59.122Z,17.17
2017-12-16T08:37:27.455Z,16.60
2017-12-16T08:39:55.747Z,17.83
2017-12-16T08:42:24.088Z,15.40
2017-12-16T08:44:52.375Z,16.60
2017-12-16T08:47:20.878Z,16.27
2017-12-16T08:49:49.167Z,17.97
2017-12-16T08:52:18.674Z,18.00
2017-12-16T08:54:47.003Z,17.07
2017-12-16T08:57:16.059Z,18.30
2017-12-16T08:59:44.394Z,15.70
2017-12-16T09:02:13.446Z,17.10
2017-12-16T09:04:42.975Z,17.17
2017-12-16T09:07:11.342Z,16.50
2017-12-16T09:09:39.634Z,17.27
2017-12-16T09:12:07.959Z,19.63
2017-12-16T09:14:36.447Z,15.53
2017-12-16T09:17:04.787Z,17.23
2017-12-16T09:19:33.839Z,17.03
2017-12-16T09:22:02.172Z,16.93
2017-12-16T09:24:31.256Z,15.00
2017-12-16T09:27:01.060Z,14.53
2017-12-16T09:29:29.390Z,16.07
2017-12-16T09:31:59.640Z,17.20
2017-12-16T09:34:28.098Z,15.90
2017-12-16T09:36:57.207Z,15.80
2017-12-16T09:39:25.505Z,16.10
2017-12-16T09:41:54.603Z,18.23
2017-12-16T09:44:22.895Z,16.80
2017-12-16T09:46:52.818Z,15.63
2017-12-16T09:49:21.106Z,18.00
2017-12-16T09:51:49.459Z,16.97
2017-12-16T09:54:18.083Z,18.27
2017-12-16T09:56:46.495Z,14.43
2017-12-16T09:59:14.831Z,16.17
2017-12-16T10:01:43.171Z,16.20
2017-12-16T10:04:11.534Z,17.80
2017-12-16T10:06:39.821Z,17.80
2017-12-16T10:09:08.142Z,17.10
2017-12-16T10:11:36.462Z,17.43
2017-12-16T10:14:04.818Z,18.33
2017-12-16T10:16:33.100Z,19.80
2017-12-16T10:19:01.393Z,18.27
2017-12-16T10:21:29.718Z,18.60
2017-12-16T10:23:58.011Z,16.83
2017-12-16T10:26:26.463Z,19.20
2017-12-16T10:28:54.751Z,18.97
2017-12-16T10:31:23.061Z,18.60
2017-12-16T10:33:52.194Z,17.70
2017-12-16T10:36:20.487Z,20.53
2017-12-16T10:38:48.816Z,17.53
2017-12-16T10:41:17.142Z,16.93
2017-12-16T10:43:46.199Z,21.35
2017-12-16T10:46:14.522Z,22.10
2017-12-16T10:48:42.863Z,18.73
2017-12-16T10:51:11.155Z,16.83
2017-12-16T10:53:39.446Z,14.27
2017-12-16T10:56:07.766Z,15.60
2017-12-16T10:58:36.106Z,17.37
2017-12-16T11:01:04.554Z,15.90
2017-12-16T11:03:32.849Z,13.20
2017-12-16T11:06:01.144Z,13.80
2017-12-16T11:08:29.466Z,15.37
2017-12-16T11:10:57.758Z,15.70
2017-12-16T11:13:26.083Z,15.60
2017-12-16T11:15:54.370Z,14.60
2017-12-16T11:18:22.702Z,15.03
2017-12-16T11:20:51.767Z,16.77
2017-12-16T11:23:20.166Z,16.17
2017-12-16T11:25:48.471Z,15.50
2017-12-16T11:28:16.758Z,14.60
2017-12-16T11:30:45.099Z,15.57
2017-12-16T11:33:13.427Z,15.90
2017-12-16T11:35:41.716Z,15.13
2017-12-16T11:38:10.011Z,16.20
2017-12-16T11:40:38.378Z,15.10
2017-12-16T11:43:07.641Z,16.40
2017-12-16T11:45:36.691Z,15.10
2017-12-16T11:48:05.051Z,16.47
2017-12-16T11:50:34.104Z,17.50
2017-12-16T11:53:02.401Z,19.37
2017-12-16T11:55:30.722Z,15.87
2017-12-16T11:57:59.779Z,16.53
2017-12-16T12:00:28.125Z,18.87
2017-12-16T12:02:57.174Z,16.67
2017-12-16T12:05:25.498Z,19.40
2017-12-16T12:07:53.807Z,17.97
2017-12-16T12:10:22.898Z,19.13
2017-12-16T12:12:51.187Z,19.30
2017-12-16T12:15:21.023Z,19.17
2017-12-16T12:17:49.359Z,18.43
2017-12-16T12:20:17.651Z,18.27
2017-12-16T12:22:45.939Z,18.90
2017-12-16T12:25:14.262Z,19.50
2017-12-16T12:27:42.554Z,18.77
2017-12-16T12:30:11.147Z,19.07
2017-12-16T12:32:39.443Z,16.37
2017-12-16T12:35:08.504Z,18.77
2017-12-16T12:37:36.839Z,15.80
2017-12-16T12:40:05.174Z,18.43
2017-12-16T12:42:33.518Z,18.27
2017-12-16T12:45:01.801Z,18.63
2017-12-16T12:47:30.094Z,16.73
2017-12-16T12:49:58.439Z,20.03
2017-12-16T12:52:26.730Z,17.13
2017-12-16T12:54:55.058Z,18.30
2017-12-16T12:57:23.347Z,20.20
2017-12-16T12:59:51.671Z,19.77
2017-12-16T13:02:20.747Z,19.10
2017-12-16T13:04:49.076Z,21.17
2017-12-16T13:07:17.481Z,19.77
2017-12-16T13:09:45.830Z,17.40
2017-12-16T13:12:14.211Z,19.83
2017-12-16T13:14:42.498Z,18.53
2017-12-16T13:17:12.343Z,16.07
2017-12-16T13:19:41.450Z,17.63
2017-12-16T13:22:10.506Z,18.23
2017-12-16T13:24:38.794Z,18.47
2017-12-16T13:27:07.126Z,19.33
2017-12-16T13:29:36.927Z,15.93
2017-12-16T13:32:05.287Z,17.30
2017-12-16T13:34:33.659Z,16.03
2017-12-16T13:37:02.715Z,18.47
2017-12-16T13:39:31.066Z,15.00
2017-12-16T13:41:59.707Z,13.83
2017-12-16T13:44:28.806Z,14.90
2017-12-16T13:46:57.152Z,15.27
2017-12-16T13:49:26.203Z,17.33
2017-12-16T13:51:54.490Z,15.67
2017-12-16T13:54:22.826Z,15.33
2017-12-16T13:56:51.882Z,16.17
2017-12-16T13:59:20.171Z,16.33
2017-12-16T14:01:48.498Z,15.93
2017-12-16T14:04:16.896Z,15.33
2017-12-16T14:06:45.148Z,14.07
2017-12-16T14:09:13.502Z,14.47
2017-12-16T14:11:41.791Z,14.97
2017-12-16T14:14:10.134Z,15.90
2017-12-16T14:16:38.458Z,16.13
2017-12-16T14:19:06.782Z,15.70
2017-12-16T14:21:35.070Z,15.17
2017-12-16T14:24:03.423Z,16.00
2017-12-16T14:26:32.481Z,15.87
2017-12-16T14:29:00.787Z,13.80
2017-12-16T14:31:30.816Z,16.70
2017-12-16T14:33:59.146Z,15.80
2017-12-16T14:36:27.435Z,15.90
2017-12-16T14:38:55.771Z,16.00
2017-12-16T14:41:24.108Z,15.27
2017-12-16T14:43:52.441Z,18.23
2017-12-16T14:46:20.774Z,19.40
2017-12-16T14:48:49.855Z,16.50
2017-12-16T14:51:18.196Z,17.00
2017-12-16T14:53:46.560Z,16.10
2017-12-16T14:56:15.615Z,18.17
2017-12-16T14:58:43.950Z,18.57
2017-12-16T15:01:13.646Z,16.90
2017-12-16T15:03:41.947Z,19.23
2017-12-16T15:06:10.234Z,15.93
2017-12-16T15:08:38.726Z,19.37
2017-12-16T15:11:07.014Z,15.43
2017-12-16T15:13:35.310Z,17.40
2017-12-16T15:16:03.631Z,15.17
2017-12-16T15:18:32.083Z,17.63
2017-12-16T15:21:00.376Z,15.40
2017-12-16T15:23:28.670Z,14.70
2017-12-16T15:25:57.007Z,18.67
2017-12-16T15:28:25.330Z,16.20
2017-12-16T15:30:53.623Z,15.30
2017-12-16T15:33:22.182Z,16.93
2017-12-16T15:35:50.515Z,23.92
2017-12-16T15:38:18.904Z,19.60
2017-12-16T15:40:47.199Z,16.97
2017-12-16T15:43:15.538Z,18.73
2017-12-16T15:45:43.827Z,16.87
2017-12-16T15:48:12.150Z,16.40
2017-12-16T15:50:40.439Z,17.33
2017-12-16T15:53:08.776Z,17.30
2017-12-16T15:55:37.859Z,15.50
2017-12-16T15:58:06.956Z,14.10
2017-12-16T16:00:35.246Z,17.43
2017-12-16T16:03:03.632Z,17.87
2017-12-16T16:05:31.878Z,16.87
2017-12-16T16:08:00.218Z,17.87
2017-12-16T16:10:29.275Z,14.23
2017-12-16T16:12:57.571Z,15.13
2017-12-16T16:15:25.910Z,15.30
2017-12-16T16:17:54.451Z,13.20
2017-12-16T16:20:22.739Z,15.50
2017-12-16T16:22:51.030Z,15.83
2017-12-16T16:25:19.367Z,14.63
2017-12-16T16:27:47.774Z,15.90
2017-12-16T16:30:16.099Z,14.93
2017-12-16T16:32:44.390Z,14.80
2017-12-16T16:35:12.735Z,16.50
2017-12-16T16:37:41.073Z,17.40
2017-12-16T16:40:09.359Z,15.73
2017-12-16T16:42:37.733Z,16.40
2017-12-16T16:45:06.025Z,15.33
2017-12-16T16:47:34.311Z,15.77
2017-12-16T16:50:02.642Z,15.47
2017-12-16T16:52:31.746Z,16.00
2017-12-16T16:55:00.801Z,18.40
2017-12-16T16:57:29.090Z,15.63
2017-12-16T16:59:57.555Z,17.13
2017-12-16T17:02:25.846Z,14.30
2017-12-16T17:04:54.138Z,16.03
2017-12-16T17:07:22.483Z,16.60
2017-12-16T17:09:50.770Z,16.83
2017-12-16T17:12:19.871Z,16.60
2017-12-16T17:14:49.662Z,18.60
2017-12-16T17:17:18.031Z,18.30
2017-12-16T17:19:46.320Z,16.50
2017-12-16T17:22:14.607Z,18.27
2017-12-16T17:24:42.944Z,17.27
2017-12-16T17:27:11.283Z,17.30
2017-12-16T17:29:39.584Z,18.00
2017-12-16T17:32:07.928Z,19.17
2017-12-16T17:34:36.219Z,17.30
2017-12-16T17:37:04.522Z,15.77
2017-12-16T17:39:33.651Z,17.40
2017-12-16T17:42:01.943Z,16.40
2017-12-16T17:44:30.240Z,20.70
2017-12-16T17:46:58.588Z,17.00
2017-12-16T17:49:26.882Z,19.63
2017-12-16T17:51:55.208Z,17.63
2017-12-16T17:54:23.503Z,18.30
2017-12-16T17:56:51.831Z,15.10
2017-12-16T17:59:20.123Z,16.10
2017-12-16T18:01:48.471Z,18.90
2017-12-16T18:04:16.763Z,18.20
2017-12-16T18:06:45.055Z,17.10
2017-12-16T18:09:13.439Z,15.73
2017-12-16T18:11:41.727Z,15.60
2017-12-16T18:14:10.040Z,18.03
2017-12-16T18:16:38.438Z,16.70
2017-12-16T18:19:06.723Z,13.40
2017-12-16T18:21:35.062Z,12.93
2017-12-16T18:24:04.134Z,15.43
2017-12-16T18:26:33.931Z,16.50
2017-12-16T18:29:02.259Z,18.37
2017-12-16T18:31:30.551Z,15.70
2017-12-16T18:33:58.875Z,16.87
2017-12-16T18:36:27.171Z,17.37
2017-12-16T18:38:55.920Z,16.10
2017-12-16T18:41:24.211Z,15.17
2017-12-16T18:43:52.519Z,15.17
2017-12-16T18:46:21.618Z,17.23
2017-12-16T18:48:49.911Z,16.80
2017-12-16T18:51:18.970Z,16.47
2017-12-16T18:53:47.290Z,16.70
2017-12-16T18:56:17.089Z,15.70
2017-12-16T18:58:45.443Z,15.30
2017-12-16T19:01:13.751Z,15.23
2017-12-16T19:03:42.043Z,14.97
2017-12-16T19:06:10.438Z,12.90
2017-12-16T19:08:38.775Z,11.07
2017-12-16T19:11:07.872Z,10.50
2017-12-16T19:13:36.163Z,12.43
2017-12-16T19:16:04.496Z,12.20
2017-12-16T19:18:32.839Z,11.37
2017-12-16T19:21:01.194Z,10.27
2017-12-16T19:23:29.531Z,9.37
2017-12-16T19:25:57.908Z,11.60
2017-12-16T19:28:26.407Z,10.20
2017-12-16T19:30:54.731Z,10.30
2017-12-16T19:33:23.019Z,9.60
2017-12-16T19:35:51.358Z,9.73
2017-12-16T19:38:19.643Z,12.13
2017-12-16T19:40:47.941Z,12.53
2017-12-16T19:43:16.283Z,12.97
2017-12-16T19:45:44.592Z,13.87
2017-12-16T19:48:12.875Z,12.37
2017-12-16T19:50:41.306Z,13.87
2017-12-16T19:53:09.640Z,14.07
2017-12-16T19:55:37.931Z,15.07
2017-12-16T19:58:06.278Z,16.80
2017-12-16T20:00:34.673Z,15.93
2017-12-16T20:03:03.058Z,14.97
2017-12-16T20:05:31.386Z,14.23
2017-12-16T20:07:59.732Z,13.05
2017-12-16T20:10:28.124Z,12.43
2017-12-16T20:12:56.414Z,12.40
2017-12-16T20:15:24.778Z,13.17
2017-12-16T20:17:53.099Z,12.10
2017-12-16T20:20:21.431Z,12.83
2017-12-16T20:22:49.722Z,13.23
2017-12-16T20:25:18.061Z,13.00
2017-12-16T20:27:46.347Z,15.03
2017-12-16T20:30:14.643Z,13.67
2017-12-16T20:32:42.968Z,12.37
2017-12-16T20:35:11.316Z,13.30
2017-12-16T20:37:39.603Z,12.60
2017-12-16T20:40:07.896Z,12.77
2017-12-16T20:42:36.999Z,15.03
2017-12-16T20:45:05.482Z,13.60
2017-12-16T20:47:33.802Z,14.20
2017-12-16T20:50:02.899Z,13.63
2017-12-16T20:52:31.191Z,14.00
2017-12-16T20:54:59.527Z,14.33
2017-12-16T20:57:27.886Z,14.40
2017-12-16T20:59:56.939Z,13.63
2017-12-16T21:02:25.232Z,12.33
2017-12-16T21:04:53.559Z,14.20
2017-12-16T21:07:21.851Z,15.37
2017-12-16T21:09:51.019Z,15.27
2017-12-16T21:12:19.344Z,14.30
2017-12-16T21:14:47.786Z,15.27
2017-12-16T21:17:16.071Z,10.80
2017-12-16T21:19:44.363Z,14.07
2017-12-16T21:22:12.695Z,13.30
2017-12-16T21:24:41.026Z,13.20
2017-12-16T21:27:09.318Z,11.70
2017-12-16T21:29:37.638Z,14.07
2017-12-16T21:32:05.927Z,11.80
2017-12-16T21:34:34.339Z,11.12
2017-12-16T21:37:02.639Z,12.70
2017-12-16T21:39:30.931Z,11.70
2017-12-16T21:41:59.260Z,12.20
2017-12-16T21:44:27.578Z,9.60
2017-12-16T21:46:55.867Z,11.50
2017-12-16T21:49:24.234Z,11.80
2017-12-16T21:51:52.521Z,12.07
2017-12-16T21:54:20.851Z,11.67
2017-12-16T21:56:49.142Z,11.70
2017-12-16T21:59:17.471Z,10.77
2017-12-16T22:01:45.764Z,13.40
2017-12-16T22:04:14.092Z,14.23
2017-12-16T22:06:42.378Z,14.83
2017-12-16T22:09:10.711Z,14.27
2017-12-16T22:11:39.799Z,13.00
2017-12-16T22:14:08.138Z,14.37
2017-12-16T22:16:36.471Z,16.30
2017-12-16T22:19:04.759Z,17.20
2017-12-16T22:21:33.056Z,13.40
2017-12-16T22:24:01.394Z,12.40
2017-12-16T22:26:29.683Z,12.57
2017-12-16T22:28:57.975Z,12.13
2017-12-16T22:31:26.302Z,12.83
2017-12-16T22:33:54.602Z,15.43
2017-12-16T22:36:22.927Z,14.90
2017-12-16T22:38:51.215Z,16.67
2017-12-16T22:41:19.568Z,16.77
2017-12-16T22:43:47.858Z,18.77
2017-12-16T22:46:16.146Z,16.67
2017-12-16T22:48:44.479Z,16.97
2017-12-16T22:51:12.815Z,14.40
2017-12-16T22:53:41.099Z,14.50
2017-12-16T22:56:09.422Z,15.60
2017-12-16T22:58:38.475Z,17.27
2017-12-16T23:01:06.814Z,14.67
2017-12-16T23:03:35.910Z,13.37
2017-12-16T23:06:04.239Z,13.37
2017-12-16T23:08:32.575Z,14.80
2017-12-16T23:11:00.866Z,14.13
2017-12-16T23:13:29.168Z,14.10
2017-12-16T23:15:57.507Z,14.07
2017-12-16T23:18:25.839Z,12.20
2017-12-16T23:20:54.131Z,13.40
2017-12-16T23:23:23.455Z,13.07
2017-12-16T23:25:51.722Z,14.70
2017-12-16T23:28:20.060Z,12.50
2017-12-16T23:30:48.351Z,14.83
2017-12-16T23:33:16.711Z,13.17
2017-12-16T23:35:45.766Z,12.70
2017-12-16T23:38:14.059Z,13.17
2017-12-16T23:40:42.391Z,13.17
2017-12-16T23:43:11.454Z,12.63
2017-12-16T23:45:39.895Z,11.63
2017-12-16T23:48:08.955Z,13.17
2017-12-16T23:50:37.238Z,11.30
2017-12-16T23:53:05.583Z,11.67
2017-12-16T23:55:34.634Z,11.47
2017-12-16T23:58:03.163Z,10.87
